Mooresville, Texas
Current Conditions -  °F | °C
As of 5:15 AM on Friday 28 Nov 2014 (Local Time) from KPWG Reporting Station
Clear Clear  
Wind Chill:   Ceiling: Unl
Heat Index:   Visibility: 10mi
Dew Point: -2°   Wind: 8mph
Humidity: 57%   Direction: 190°S
Pressure: 30.31"   Gusts: NA
Location:  31.2985°N, 97.112°W
Report Text: KPWG 281115Z AUTO 19007KT 10SM CLR 06/M02 A3031 RMK AO1
Loading
Personal Weather Stations






























Interactive Weather Map New forecast layout! Learn more

10-Day Weather Forecast

Advertisements
Track Severe Weather on mobile